sensor_id;sensor_type;location;lat;lon;timestamp;pressure;altitude;pressure_sealevel;temperature;humidity
15884;BME280;8040;50.254;10.960;2024-01-25T00:00:28;98991.41;;;10.20;55.59
15884;BME280;8040;50.254;10.960;2024-01-25T00:02:53;98990.34;;;10.21;56.04
15884;BME280;8040;50.254;10.960;2024-01-25T00:05:18;98991.41;;;10.20;56.75
15884;BME280;8040;50.254;10.960;2024-01-25T00:07:47;98987.09;;;10.14;56.11
15884;BME280;8040;50.254;10.960;2024-01-25T00:10:13;98976.84;;;10.11;56.18
15884;BME280;8040;50.254;10.960;2024-01-25T00:12:39;98982.78;;;10.13;56.30
15884;BME280;8040;50.254;10.960;2024-01-25T00:15:04;98990.13;;;10.12;56.06
15884;BME280;8040;50.254;10.960;2024-01-25T00:17:29;98979.81;;;10.09;56.41
15884;BME280;8040;50.254;10.960;2024-01-25T00:19:55;98986.59;;;10.07;56.71
15884;BME280;8040;50.254;10.960;2024-01-25T00:22:20;98995.31;;;10.04;56.67
15884;BME280;8040;50.254;10.960;2024-01-25T00:24:45;98985.81;;;10.06;56.83
15884;BME280;8040;50.254;10.960;2024-01-25T00:27:11;98986.06;;;10.05;56.43
15884;BME280;8040;50.254;10.960;2024-01-25T00:29:36;98987.41;;;10.02;56.79
15884;BME280;8040;50.254;10.960;2024-01-25T00:32:01;98992.84;;;10.07;56.82
15884;BME280;8040;50.254;10.960;2024-01-25T00:34:27;98987.16;;;10.09;56.95
15884;BME280;8040;50.254;10.960;2024-01-25T00:36:52;98990.38;;;10.16;57.31
15884;BME280;8040;50.254;10.960;2024-01-25T00:39:19;98983.84;;;10.17;57.00
15884;BME280;8040;50.254;10.960;2024-01-25T00:41:44;98981.69;;;10.14;57.42
15884;BME280;8040;50.254;10.960;2024-01-25T00:44:13;98992.75;;;10.22;57.53
15884;BME280;8040;50.254;10.960;2024-01-25T00:46:39;98981.41;;;10.20;57.19
15884;BME280;8040;50.254;10.960;2024-01-25T00:49:04;98990.91;;;10.13;57.35
15884;BME280;8040;50.254;10.960;2024-01-25T00:51:29;98987.94;;;10.14;57.68
15884;BME280;8040;50.254;10.960;2024-01-25T00:53:55;98987.09;;;10.14;57.73
15884;BME280;8040;50.254;10.960;2024-01-25T00:56:20;98985.50;;;10.08;57.64
15884;BME280;8040;50.254;10.960;2024-01-25T00:58:46;98992.81;;;10.12;57.70
15884;BME280;8040;50.254;10.960;2024-01-25T01:01:11;98987.69;;;10.11;58.62
15884;BME280;8040;50.254;10.960;2024-01-25T01:03:37;98996.06;;;10.14;58.22
15884;BME280;8040;50.254;10.960;2024-01-25T01:06:02;98993.94;;;10.11;58.06
15884;BME280;8040;50.254;10.960;2024-01-25T01:08:28;98991.72;;;10.13;58.37
15884;BME280;8040;50.254;10.960;2024-01-25T01:10:54;98996.31;;;10.18;58.89
15884;BME280;8040;50.254;10.960;2024-01-25T01:13:19;98997.94;;;10.19;58.97
15884;BME280;8040;50.254;10.960;2024-01-25T01:15:44;99003.84;;;10.26;58.94
15884;BME280;8040;50.254;10.960;2024-01-25T01:18:10;99010.09;;;10.26;58.88
15884;BME280;8040;50.254;10.960;2024-01-25T01:20:35;99013.09;;;10.25;59.55
15884;BME280;8040;50.254;10.960;2024-01-25T01:23:00;99026.13;;;10.18;60.02
15884;BME280;8040;50.254;10.960;2024-01-25T01:25:26;99009.88;;;10.13;60.22
15884;BME280;8040;50.254;10.960;2024-01-25T01:27:52;99003.97;;;10.06;60.86
15884;BME280;8040;50.254;10.960;2024-01-25T01:30:18;99012.06;;;10.11;61.33
15884;BME280;8040;50.254;10.960;2024-01-25T01:32:43;99013.19;;;10.05;61.67
15884;BME280;8040;50.254;10.960;2024-01-25T01:35:08;99019.13;;;10.07;62.04
15884;BME280;8040;50.254;10.960;2024-01-25T01:37:34;99024.53;;;10.02;62.61
15884;BME280;8040;50.254;10.960;2024-01-25T01:39:59;99018.59;;;10.05;62.10
15884;BME280;8040;50.254;10.960;2024-01-25T01:42:25;99013.44;;;10.03;62.64
15884;BME280;8040;50.254;10.960;2024-01-25T01:44:50;99017.78;;;9.99;62.68
15884;BME280;8040;50.254;10.960;2024-01-25T01:47:17;99020.19;;;10.01;62.83
15884;BME280;8040;50.254;10.960;2024-01-25T01:49:42;99022.13;;;9.95;63.60
15884;BME280;8040;50.254;10.960;2024-01-25T01:52:07;99025.63;;;9.96;63.08
15884;BME280;8040;50.254;10.960;2024-01-25T01:54:33;99027.28;;;9.97;62.79
15884;BME280;8040;50.254;10.960;2024-01-25T01:56:58;99029.75;;;9.93;62.66
15884;BME280;8040;50.254;10.960;2024-01-25T01:59:24;99024.56;;;9.97;63.08
15884;BME280;8040;50.254;10.960;2024-01-25T02:01:51;99032.41;;;9.98;63.27
15884;BME280;8040;50.254;10.960;2024-01-25T02:04:16;99032.16;;;9.95;63.14
15884;BME280;8040;50.254;10.960;2024-01-25T02:06:42;99034.06;;;9.94;63.26
15884;BME280;8040;50.254;10.960;2024-01-25T02:09:07;99030.53;;;9.94;63.05
15884;BME280;8040;50.254;10.960;2024-01-25T02:11:32;99038.41;;;9.95;62.68
15884;BME280;8040;50.254;10.960;2024-01-25T02:13:58;99039.19;;;9.96;63.17
15884;BME280;8040;50.254;10.960;2024-01-25T02:16:23;99029.44;;;10.00;63.02
15884;BME280;8040;50.254;10.960;2024-01-25T02:18:48;99030.25;;;10.00;63.20
15884;BME280;8040;50.254;10.960;2024-01-25T02:21:14;99031.34;;;9.94;62.90
15884;BME280;8040;50.254;10.960;2024-01-25T02:23:39;99036.78;;;9.94;61.89
15884;BME280;8040;50.254;10.960;2024-01-25T02:26:04;99041.38;;;9.94;61.81
15884;BME280;8040;50.254;10.960;2024-01-25T02:28:30;99034.31;;;9.98;62.96
15884;BME280;8040;50.254;10.960;2024-01-25T02:30:55;99033.75;;;9.96;62.38
15884;BME280;8040;50.254;10.960;2024-01-25T02:33:20;99015.94;;;9.90;62.19
15884;BME280;8040;50.254;10.960;2024-01-25T02:35:46;99024.06;;;9.90;62.59
15884;BME280;8040;50.254;10.960;2024-01-25T02:38:11;99024.06;;;9.85;61.75
15884;BME280;8040;50.254;10.960;2024-01-25T02:40:36;99031.63;;;9.83;62.04
15884;BME280;8040;50.254;10.960;2024-01-25T02:43:02;99030.84;;;9.77;62.44
15884;BME280;8040;50.254;10.960;2024-01-25T02:45:27;99027.88;;;9.79;62.22
15884;BME280;8040;50.254;10.960;2024-01-25T02:47:52;99015.69;;;9.76;62.21
15884;BME280;8040;50.254;10.960;2024-01-25T02:50:18;99020.28;;;9.76;62.34
15884;BME280;8040;50.254;10.960;2024-01-25T02:52:43;99012.72;;;9.73;62.41
15884;BME280;8040;50.254;10.960;2024-01-25T02:55:08;99012.72;;;9.73;62.97
15884;BME280;8040;50.254;10.960;2024-01-25T02:57:34;99021.94;;;9.67;63.10
15884;BME280;8040;50.254;10.960;2024-01-25T02:59:59;99026.81;;;9.65;63.00
15884;BME280;8040;50.254;10.960;2024-01-25T03:02:25;99032.22;;;9.65;62.80
15884;BME280;8040;50.254;10.960;2024-01-25T03:04:50;99007.34;;;9.53;62.81
15884;BME280;8040;50.254;10.960;2024-01-25T03:07:15;99024.09;;;9.70;62.97
15884;BME280;8040;50.254;10.960;2024-01-25T03:09:41;99022.47;;;9.64;62.63
15884;BME280;8040;50.254;10.960;2024-01-25T03:12:07;99024.94;;;9.65;63.56
15884;BME280;8040;50.254;10.960;2024-01-25T03:14:32;99027.38;;;9.67;63.09
15884;BME280;8040;50.254;10.960;2024-01-25T03:16:57;99021.94;;;9.72;63.40
15884;BME280;8040;50.254;10.960;2024-01-25T03:19:26;99015.97;;;9.70;62.92
15884;BME280;8040;50.254;10.960;2024-01-25T03:21:52;99013.25;;;9.75;62.78
15884;BME280;8040;50.254;10.960;2024-01-25T03:24:17;99006.22;;;9.74;62.85
15884;BME280;8040;50.254;10.960;2024-01-25T03:26:43;99019.25;;;9.67;62.71
15884;BME280;8040;50.254;10.960;2024-01-25T03:29:08;99017.63;;;9.66;62.93
15884;BME280;8040;50.254;10.960;2024-01-25T03:31:33;99020.88;;;9.53;63.16
15884;BME280;8040;50.254;10.960;2024-01-25T03:33:59;99027.13;;;9.53;63.38
15884;BME280;8040;50.254;10.960;2024-01-25T03:36:25;99022.53;;;9.49;64.20
15884;BME280;8040;50.254;10.960;2024-01-25T03:38:50;99027.41;;;9.42;64.42
15884;BME280;8040;50.254;10.960;2024-01-25T03:41:15;99016.03;;;9.35;63.94
15884;BME280;8040;50.254;10.960;2024-01-25T03:43:41;99011.47;;;9.15;64.13
15884;BME280;8040;50.254;10.960;2024-01-25T03:46:06;99015.53;;;9.18;64.51
15884;BME280;8040;50.254;10.960;2024-01-25T03:48:31;99028.78;;;9.09;64.78
15884;BME280;8040;50.254;10.960;2024-01-25T03:50:57;99028.53;;;9.06;65.18
15884;BME280;8040;50.254;10.960;2024-01-25T03:53:22;99035.00;;;9.00;65.09
15884;BME280;8040;50.254;10.960;2024-01-25T03:55:48;99044.22;;;8.99;65.23
15884;BME280;8040;50.254;10.960;2024-01-25T03:58:17;99053.94;;;8.95;65.62
15884;BME280;8040;50.254;10.960;2024-01-25T04:00:43;99049.59;;;8.89;65.34
15884;BME280;8040;50.254;10.960;2024-01-25T04:03:08;99046.38;;;8.87;65.84
15884;BME280;8040;50.254;10.960;2024-01-25T04:05:34;99059.31;;;8.80;66.08
15884;BME280;8040;50.254;10.960;2024-01-25T04:08:01;99062.31;;;8.83;66.16
15884;BME280;8040;50.254;10.960;2024-01-25T04:10:26;99070.97;;;8.85;66.03
15884;BME280;8040;50.254;10.960;2024-01-25T04:12:51;99081.53;;;8.82;66.73
15884;BME280;8040;50.254;10.960;2024-01-25T04:15:17;99060.69;;;8.77;66.81
15884;BME280;8040;50.254;10.960;2024-01-25T04:17:42;99075.28;;;8.76;66.28
15884;BME280;8040;50.254;10.960;2024-01-25T04:20:08;99072.28;;;8.73;66.61
15884;BME280;8040;50.254;10.960;2024-01-25T04:22:34;99072.00;;;8.69;66.92
15884;BME280;8040;50.254;10.960;2024-01-25T04:25:00;99082.84;;;8.69;66.45
15884;BME280;8040;50.254;10.960;2024-01-25T04:27:25;99098.25;;;8.74;66.45
15884;BME280;8040;50.254;10.960;2024-01-25T04:29:50;99092.06;;;8.73;65.90
15884;BME280;8040;50.254;10.960;2024-01-25T04:32:16;99102.63;;;8.75;66.57
15884;BME280;8040;50.254;10.960;2024-01-25T04:34:41;99098.56;;;8.77;66.96
15884;BME280;8040;50.254;10.960;2024-01-25T04:37:09;99086.38;;;8.80;66.17
15884;BME280;8040;50.254;10.960;2024-01-25T04:39:34;99086.38;;;8.80;66.01
15884;BME280;8040;50.254;10.960;2024-01-25T04:41:59;99069.09;;;8.81;65.90
15884;BME280;8040;50.254;10.960;2024-01-25T04:44:25;99076.09;;;8.77;65.83
15884;BME280;8040;50.254;10.960;2024-01-25T04:46:51;99076.34;;;8.75;65.98
15884;BME280;8040;50.254;10.960;2024-01-25T04:49:20;99076.34;;;8.65;66.19
15884;BME280;8040;50.254;10.960;2024-01-25T04:51:45;99074.44;;;8.56;66.75
15884;BME280;8040;50.254;10.960;2024-01-25T04:54:11;99077.66;;;8.53;66.47
15884;BME280;8040;50.254;10.960;2024-01-25T04:56:38;99085.22;;;8.46;66.91
15884;BME280;8040;50.254;10.960;2024-01-25T04:59:03;99103.84;;;8.42;66.97
15884;BME280;8040;50.254;10.960;2024-01-25T05:01:29;99114.91;;;8.41;67.17
15884;BME280;8040;50.254;10.960;2024-01-25T05:03:54;99113.31;;;8.45;67.13
15884;BME280;8040;50.254;10.960;2024-01-25T05:06:20;99129.84;;;8.48;67.17
15884;BME280;8040;50.254;10.960;2024-01-25T05:08:45;99141.72;;;8.52;66.94
15884;BME280;8040;50.254;10.960;2024-01-25T05:11:11;99145.28;;;8.58;67.15
15884;BME280;8040;50.254;10.960;2024-01-25T05:13:36;99159.63;;;8.63;67.14
15884;BME280;8040;50.254;10.960;2024-01-25T05:16:01;99152.88;;;8.66;67.01
15884;BME280;8040;50.254;10.960;2024-01-25T05:18:27;99160.97;;;8.61;66.77
15884;BME280;8040;50.254;10.960;2024-01-25T05:20:52;99166.38;;;8.61;67.08
15884;BME280;8040;50.254;10.960;2024-01-25T05:23:18;99157.66;;;8.44;66.80
15884;BME280;8040;50.254;10.960;2024-01-25T05:25:43;99182.03;;;8.54;66.97
15884;BME280;8040;50.254;10.960;2024-01-25T05:28:08;99182.59;;;8.61;67.17
15884;BME280;8040;50.254;10.960;2024-01-25T05:30:33;99185.63;;;8.69;67.44
15884;BME280;8040;50.254;10.960;2024-01-25T05:32:59;99174.78;;;8.69;67.63
15884;BME280;8040;50.254;10.960;2024-01-25T05:35:25;99166.41;;;8.66;66.90
15884;BME280;8040;50.254;10.960;2024-01-25T05:37:51;99183.22;;;8.78;66.87
15884;BME280;8040;50.254;10.960;2024-01-25T05:40:16;99174.81;;;8.74;67.29
15884;BME280;8040;50.254;10.960;2024-01-25T05:42:42;99176.69;;;8.74;67.41
15884;BME280;8040;50.254;10.960;2024-01-25T05:45:08;99171.81;;;8.71;66.89
15884;BME280;8040;50.254;10.960;2024-01-25T05:47:34;99177.75;;;8.68;67.08
15884;BME280;8040;50.254;10.960;2024-01-25T05:49:59;99183.13;;;8.58;67.16
15884;BME280;8040;50.254;10.960;2024-01-25T05:52:25;99185.00;;;8.57;67.16
15884;BME280;8040;50.254;10.960;2024-01-25T05:54:50;99186.06;;;8.51;67.20
15884;BME280;8040;50.254;10.960;2024-01-25T05:57:15;99170.13;;;8.50;66.77
15884;BME280;8040;50.254;10.960;2024-01-25T05:59:42;99174.72;;;8.49;67.01
15884;BME280;8040;50.254;10.960;2024-01-25T06:02:07;99172.25;;;8.48;66.77
15884;BME280;8040;50.254;10.960;2024-01-25T06:04:33;99182.00;;;8.44;66.99
15884;BME280;8040;50.254;10.960;2024-01-25T06:06:59;99179.00;;;8.45;66.71
15884;BME280;8040;50.254;10.960;2024-01-25T06:09:25;99180.91;;;8.45;66.64
15884;BME280;8040;50.254;10.960;2024-01-25T06:11:50;99194.41;;;8.40;66.42
15884;BME280;8040;50.254;10.960;2024-01-25T06:14:16;99178.69;;;8.37;66.64
15884;BME280;8040;50.254;10.960;2024-01-25T06:16:41;99188.97;;;8.35;66.79
15884;BME280;8040;50.254;10.960;2024-01-25T06:19:07;99185.72;;;8.33;66.81
15884;BME280;8040;50.254;10.960;2024-01-25T06:21:33;99190.53;;;8.26;66.41
15884;BME280;8040;50.254;10.960;2024-01-25T06:24:01;99197.00;;;8.25;66.67
15884;BME280;8040;50.254;10.960;2024-01-25T06:26:26;99204.50;;;8.18;66.39
15884;BME280;8040;50.254;10.960;2024-01-25T06:28:52;99216.63;;;8.15;66.62
15884;BME280;8040;50.254;10.960;2024-01-25T06:31:17;99215.63;;;8.21;66.41
15884;BME280;8040;50.254;10.960;2024-01-25T06:33:42;99216.94;;;8.19;66.65
15884;BME280;8040;50.254;10.960;2024-01-25T06:36:12;99235.38;;;8.22;66.43
15884;BME280;8040;50.254;10.960;2024-01-25T06:38:39;99229.75;;;8.28;66.21
15884;BME280;8040;50.254;10.960;2024-01-25T06:41:04;99236.00;;;8.34;66.84
15884;BME280;8040;50.254;10.960;2024-01-25T06:43:29;99254.41;;;8.42;67.03
15884;BME280;8040;50.254;10.960;2024-01-25T06:45:55;99267.16;;;8.46;66.27
15884;BME280;8040;50.254;10.960;2024-01-25T06:48:20;99262.06;;;8.50;66.18
15884;BME280;8040;50.254;10.960;2024-01-25T06:50:45;99280.72;;;8.51;65.50
15884;BME280;8040;50.254;10.960;2024-01-25T06:53:11;99286.94;;;8.52;65.84
15884;BME280;8040;50.254;10.960;2024-01-25T06:55:36;99273.47;;;8.57;66.30
15884;BME280;8040;50.254;10.960;2024-01-25T06:58:02;99280.19;;;8.54;66.49
15884;BME280;8040;50.254;10.960;2024-01-25T07:00:27;99281.00;;;8.55;66.53
15884;BME280;8040;50.254;10.960;2024-01-25T07:02:52;99282.13;;;8.59;66.24
15884;BME280;8040;50.254;10.960;2024-01-25T07:05:18;99275.09;;;8.58;66.34
15884;BME280;8040;50.254;10.960;2024-01-25T07:07:44;99270.19;;;8.55;66.19
15884;BME280;8040;50.254;10.960;2024-01-25T07:10:09;99266.72;;;8.59;65.60
15884;BME280;8040;50.254;10.960;2024-01-25T07:12:34;99272.66;;;8.61;65.27
15884;BME280;8040;50.254;10.960;2024-01-25T07:14:59;99269.97;;;8.61;65.63
15884;BME280;8040;50.254;10.960;2024-01-25T07:17:25;99276.50;;;8.65;65.51
15884;BME280;8040;50.254;10.960;2024-01-25T07:19:50;99290.84;;;8.71;65.33
15884;BME280;8040;50.254;10.960;2024-01-25T07:22:16;99290.81;;;8.66;63.71
15884;BME280;8040;50.254;10.960;2024-01-25T07:24:49;99289.78;;;8.77;64.42
15884;BME280;8040;50.254;10.960;2024-01-25T07:27:14;99306.56;;;8.79;64.26
15884;BME280;8040;50.254;10.960;2024-01-25T07:29:39;99306.59;;;8.84;63.78
15884;BME280;8040;50.254;10.960;2024-01-25T07:32:05;99299.59;;;8.88;63.95
15884;BME280;8040;50.254;10.960;2024-01-25T07:34:30;99306.09;;;8.87;63.69
15884;BME280;8040;50.254;10.960;2024-01-25T07:36:55;99307.72;;;8.88;63.39
15884;BME280;8040;50.254;10.960;2024-01-25T07:39:21;99309.38;;;8.94;63.52
15884;BME280;8040;50.254;10.960;2024-01-25T07:41:46;99310.75;;;8.96;63.06
15884;BME280;8040;50.254;10.960;2024-01-25T07:44:12;99302.06;;;8.94;62.23
15884;BME280;8040;50.254;10.960;2024-01-25T07:46:37;99305.63;;;9.00;62.54
15884;BME280;8040;50.254;10.960;2024-01-25T07:49:03;99301.81;;;9.01;60.96
15884;BME280;8040;50.254;10.960;2024-01-25T07:51:28;99298.00;;;8.97;60.82
15884;BME280;8040;50.254;10.960;2024-01-25T07:53:54;99298.00;;;8.97;60.73
15884;BME280;8040;50.254;10.960;2024-01-25T07:56:19;99305.31;;;9.01;61.03
15884;BME280;8040;50.254;10.960;2024-01-25T07:58:47;99304.47;;;8.91;60.94
15884;BME280;8040;50.254;10.960;2024-01-25T08:01:13;99308.81;;;8.92;60.96
15884;BME280;8040;50.254;10.960;2024-01-25T08:03:42;99314.00;;;8.98;60.89
15884;BME280;8040;50.254;10.960;2024-01-25T08:06:07;99321.03;;;8.99;61.03
15884;BME280;8040;50.254;10.960;2024-01-25T08:08:34;99330.00;;;9.05;61.35
15884;BME280;8040;50.254;10.960;2024-01-25T08:10:59;99328.13;;;9.10;60.76
15884;BME280;8040;50.254;10.960;2024-01-25T08:13:25;99331.66;;;9.16;60.64
15884;BME280;8040;50.254;10.960;2024-01-25T08:15:53;99336.84;;;9.22;61.31
15884;BME280;8040;50.254;10.960;2024-01-25T08:18:19;99336.59;;;9.24;61.61
15884;BME280;8040;50.254;10.960;2024-01-25T08:20:44;99341.19;;;9.28;61.77
15884;BME280;8040;50.254;10.960;2024-01-25T08:23:09;99336.56;;;9.29;62.10
15884;BME280;8040;50.254;10.960;2024-01-25T08:25:35;99329.84;;;9.26;61.28
15884;BME280;8040;50.254;10.960;2024-01-25T08:28:00;99335.25;;;9.31;61.03
15884;BME280;8040;50.254;10.960;2024-01-25T08:30:26;99331.16;;;9.29;61.21
15884;BME280;8040;50.254;10.960;2024-01-25T08:32:51;99333.91;;;9.34;60.97
15884;BME280;8040;50.254;10.960;2024-01-25T08:35:17;99339.31;;;9.34;60.93
15884;BME280;8040;50.254;10.960;2024-01-25T08:37:42;99333.09;;;9.33;60.34
15884;BME280;8040;50.254;10.960;2024-01-25T08:40:08;99336.13;;;9.42;60.67
15884;BME280;8040;50.254;10.960;2024-01-25T08:42:34;99336.66;;;9.44;60.33
15884;BME280;8040;50.254;10.960;2024-01-25T08:45:00;99340.44;;;9.43;60.74
15884;BME280;8040;50.254;10.960;2024-01-25T08:47:25;99343.94;;;9.43;60.93
15884;BME280;8040;50.254;10.960;2024-01-25T08:49:51;99340.41;;;9.38;60.34
15884;BME280;8040;50.254;10.960;2024-01-25T08:52:22;99343.66;;;9.40;60.29
15884;BME280;8040;50.254;10.960;2024-01-25T08:54:47;99354.53;;;9.45;61.11
15884;BME280;8040;50.254;10.960;2024-01-25T08:57:12;99361.06;;;9.54;60.92
15884;BME280;8040;50.254;10.960;2024-01-25T08:59:40;99359.44;;;9.58;59.98
15884;BME280;8040;50.254;10.960;2024-01-25T09:02:05;99364.88;;;9.63;59.71
15884;BME280;8040;50.254;10.960;2024-01-25T09:04:31;99337.53;;;9.59;60.01
15884;BME280;8040;50.254;10.960;2024-01-25T09:06:57;99357.06;;;9.76;60.25
15884;BME280;8040;50.254;10.960;2024-01-25T09:09:22;99364.66;;;9.79;59.68
15884;BME280;8040;50.254;10.960;2024-01-25T09:11:48;99359.53;;;9.78;59.91
15884;BME280;8040;50.254;10.960;2024-01-25T09:14:16;99355.19;;;9.87;59.94
15884;BME280;8040;50.254;10.960;2024-01-25T09:16:41;99353.31;;;9.87;58.64
15884;BME280;8040;50.254;10.960;2024-01-25T09:19:07;99358.44;;;9.89;59.30
15884;BME280;8040;50.254;10.960;2024-01-25T09:21:33;99362.25;;;9.78;59.22
15884;BME280;8040;50.254;10.960;2024-01-25T09:23:58;99357.34;;;9.75;59.41
15884;BME280;8040;50.254;10.960;2024-01-25T09:26:24;99360.84;;;9.70;59.28
15884;BME280;8040;50.254;10.960;2024-01-25T09:28:50;99366.81;;;9.72;59.30
15884;BME280;8040;50.254;10.960;2024-01-25T09:31:15;99368.72;;;9.77;60.01
15884;BME280;8040;50.254;10.960;2024-01-25T09:33:40;99375.78;;;9.83;59.78
15884;BME280;8040;50.254;10.960;2024-01-25T09:36:06;99376.38;;;9.90;59.26
15884;BME280;8040;50.254;10.960;2024-01-25T09:38:31;99380.16;;;9.99;59.29
15884;BME280;8040;50.254;10.960;2024-01-25T09:40:57;99382.91;;;10.04;58.84
15884;BME280;8040;50.254;10.960;2024-01-25T09:43:22;99384.00;;;10.08;58.97
15884;BME280;8040;50.254;10.960;2024-01-25T09:45:48;99398.63;;;10.07;58.44
15884;BME280;8040;50.254;10.960;2024-01-25T09:48:16;99395.13;;;10.06;58.61
15884;BME280;8040;50.254;10.960;2024-01-25T09:50:41;99395.13;;;10.06;57.63
15884;BME280;8040;50.254;10.960;2024-01-25T09:53:07;99393.25;;;10.17;58.06
15884;BME280;8040;50.254;10.960;2024-01-25T09:55:36;99391.34;;;10.22;57.64
15884;BME280;8040;50.254;10.960;2024-01-25T09:58:05;99406.25;;;10.20;56.45
15884;BME280;8040;50.254;10.960;2024-01-25T10:00:33;99405.66;;;10.03;55.68
15884;BME280;8040;50.254;10.960;2024-01-25T10:02:58;99401.81;;;9.94;55.67
15884;BME280;8040;50.254;10.960;2024-01-25T10:05:23;99396.66;;;9.92;54.96
15884;BME280;8040;50.254;10.960;2024-01-25T10:07:49;99399.09;;;9.84;55.24
15884;BME280;8040;50.254;10.960;2024-01-25T10:10:14;99397.44;;;9.73;55.38
15884;BME280;8040;50.254;10.960;2024-01-25T10:12:41;99403.69;;;9.83;55.99
15884;BME280;8040;50.254;10.960;2024-01-25T10:15:06;99405.06;;;9.96;55.44
15884;BME280;8040;50.254;10.960;2024-01-25T10:17:32;99413.78;;;9.98;54.61
15884;BME280;8040;50.254;10.960;2024-01-25T10:19:57;99414.84;;;10.02;54.42
15884;BME280;8040;50.254;10.960;2024-01-25T10:22:24;99403.72;;;9.98;54.52
15884;BME280;8040;50.254;10.960;2024-01-25T10:24:49;99400.28;;;10.13;53.74
15884;BME280;8040;50.254;10.960;2024-01-25T10:27:21;99405.19;;;10.21;53.74
15884;BME280;8040;50.254;10.960;2024-01-25T10:29:46;99399.75;;;10.31;53.66
15884;BME280;8040;50.254;10.960;2024-01-25T10:32:12;99398.13;;;10.50;53.71
15884;BME280;8040;50.254;10.960;2024-01-25T10:34:37;99403.31;;;10.56;53.44
15884;BME280;8040;50.254;10.960;2024-01-25T10:37:03;99399.78;;;10.41;52.79
15884;BME280;8040;50.254;10.960;2024-01-25T10:39:30;99405.19;;;10.41;52.51
15884;BME280;8040;50.254;10.960;2024-01-25T10:41:55;99405.19;;;10.41;53.11
15884;BME280;8040;50.254;10.960;2024-01-25T10:44:21;99398.41;;;10.33;52.70
15884;BME280;8040;50.254;10.960;2024-01-25T10:46:46;99390.00;;;10.35;53.61
15884;BME280;8040;50.254;10.960;2024-01-25T10:49:12;99398.69;;;10.37;53.23
15884;BME280;8040;50.254;10.960;2024-01-25T10:51:37;99391.38;;;10.37;53.42
15884;BME280;8040;50.254;10.960;2024-01-25T10:54:04;99391.63;;;10.26;52.71
15884;BME280;8040;50.254;10.960;2024-01-25T10:56:41;99359.00;;;9.91;53.61
15884;BME280;8040;50.254;10.960;2024-01-25T10:59:07;99381.25;;;10.03;53.28
15884;BME280;8040;50.254;10.960;2024-01-25T11:01:33;99385.03;;;10.02;53.12
15884;BME280;8040;50.254;10.960;2024-01-25T11:03:59;99378.88;;;10.11;54.05
15884;BME280;8040;50.254;10.960;2024-01-25T11:06:26;99365.59;;;10.10;53.77
15884;BME280;8040;50.254;10.960;2024-01-25T11:08:52;99369.94;;;10.16;52.94
15884;BME280;8040;50.254;10.960;2024-01-25T11:11:17;99377.22;;;10.10;52.57
15884;BME280;8040;50.254;10.960;2024-01-25T11:13:43;99378.59;;;10.13;52.28
15884;BME280;8040;50.254;10.960;2024-01-25T11:21:12;99388.38;;;10.34;50.63
15884;BME280;8040;50.254;10.960;2024-01-25T11:23:46;99386.22;;;10.41;50.91
15884;BME280;8040;50.254;10.960;2024-01-25T11:26:11;99391.09;;;10.49;50.36
15884;BME280;8040;50.254;10.960;2024-01-25T11:28:36;99393.53;;;10.50;50.71
15884;BME280;8040;50.254;10.960;2024-01-25T11:31:02;99384.03;;;10.48;50.64
15884;BME280;8040;50.254;10.960;2024-01-25T11:33:28;99398.16;;;10.60;50.97
15884;BME280;8040;50.254;10.960;2024-01-25T11:35:54;99391.09;;;10.54;50.38
15884;BME280;8040;50.254;10.960;2024-01-25T11:38:19;99392.16;;;10.63;51.04
15884;BME280;8040;50.254;10.960;2024-01-25T11:40:46;99407.91;;;10.56;50.39
15884;BME280;8040;50.254;10.960;2024-01-25T11:43:11;99407.38;;;10.54;50.85
15884;BME280;8040;50.254;10.960;2024-01-25T11:45:39;99404.41;;;10.60;50.96
15884;BME280;8040;50.254;10.960;2024-01-25T11:48:07;99401.97;;;10.59;50.22
15884;BME280;8040;50.254;10.960;2024-01-25T11:50:32;99409.53;;;10.57;49.74
15884;BME280;8040;50.254;10.960;2024-01-25T11:52:58;99398.97;;;10.55;49.89
15884;BME280;8040;50.254;10.960;2024-01-25T11:55:23;99395.44;;;10.65;50.37
15884;BME280;8040;50.254;10.960;2024-01-25T11:57:49;99399.78;;;10.66;50.64
15884;BME280;8040;50.254;10.960;2024-01-25T12:00:14;99399.50;;;10.57;50.40
15884;BME280;8040;50.254;10.960;2024-01-25T12:02:41;99393.81;;;10.54;49.67
15884;BME280;8040;50.254;10.960;2024-01-25T12:05:08;99394.38;;;10.46;50.09
15884;BME280;8040;50.254;10.960;2024-01-25T12:07:34;99384.31;;;10.56;50.91
15884;BME280;8040;50.254;10.960;2024-01-25T12:10:05;99383.78;;;10.49;49.80
15884;BME280;8040;50.254;10.960;2024-01-25T12:12:30;99382.97;;;10.54;50.13
15884;BME280;8040;50.254;10.960;2024-01-25T12:14:59;99391.09;;;10.59;50.11
15884;BME280;8040;50.254;10.960;2024-01-25T12:17:28;99387.31;;;10.70;49.63
15884;BME280;8040;50.254;10.960;2024-01-25T12:19:54;99390.28;;;10.63;49.54
15884;BME280;8040;50.254;10.960;2024-01-25T12:22:20;99393.78;;;10.74;49.67
15884;BME280;8040;50.254;10.960;2024-01-25T12:24:50;99384.31;;;10.71;49.65
15884;BME280;8040;50.254;10.960;2024-01-25T12:27:15;99387.84;;;10.67;49.42
15884;BME280;8040;50.254;10.960;2024-01-25T12:29:41;99387.56;;;10.58;49.41
15884;BME280;8040;50.254;10.960;2024-01-25T12:32:08;99391.09;;;10.54;49.32
15884;BME280;8040;50.254;10.960;2024-01-25T12:34:33;99393.28;;;10.47;49.50
15884;BME280;8040;50.254;10.960;2024-01-25T12:36:59;99400.31;;;10.48;49.98
15884;BME280;8040;50.254;10.960;2024-01-25T12:39:24;99398.94;;;10.40;49.36
15884;BME280;8040;50.254;10.960;2024-01-25T12:41:50;99394.88;;;10.38;49.59
15884;BME280;8040;50.254;10.960;2024-01-25T12:44:15;99396.53;;;10.39;49.51
15884;BME280;8040;50.254;10.960;2024-01-25T12:46:41;99395.97;;;10.22;50.20
15884;BME280;8040;50.254;10.960;2024-01-25T12:49:06;99394.88;;;10.18;49.98
15884;BME280;8040;50.254;10.960;2024-01-25T12:51:31;99383.78;;;10.24;50.93
15884;BME280;8040;50.254;10.960;2024-01-25T12:53:57;99389.16;;;10.29;50.58
15884;BME280;8040;50.254;10.960;2024-01-25T12:56:22;99385.09;;;10.32;50.07
15884;BME280;8040;50.254;10.960;2024-01-25T12:58:47;99382.13;;;10.33;50.28
15884;BME280;8040;50.254;10.960;2024-01-25T13:01:13;99379.41;;;10.28;50.18
15884;BME280;8040;50.254;10.960;2024-01-25T13:03:38;99380.78;;;10.36;50.46